Terminal Aerodrome Forecast
Issued by NWS Charleston, WV

Current Version | Previous Version | Text Only | Print | Product List | Glossary Off
Versions: 1 2 3 4 5 6 7 8 9 10 11 12 13 14 15 16 17 18 19 20 21 22 23 24 25

567
FTUS41 KRLX 272056 AAA
TAFCRW
TAF AMD
KCRW 272056Z 2721/2818 28008G16KT P6SM SCT050
     FM280000 00000KT P6SM SKC
     FM280800 00000KT 3SM BR SKC
     FM280900 00000KT 1SM BR BKN001
     FM281200 00000KT 3SM BR FEW001
     FM281300 VRB03KT P6SM SKC=

USA.gov is the U.S. government's official web portal to all federal, state and local government web resources and services.